Time;durP1;ratioP1;P1;durP2;ratioP2;P2;SDS_P1;SDS_P2;PMS_P1;PMS_P2;Temp;Humidity;BMP_temperature;BMP_pressure;BME280_temperature;BME280_humidity;BME280_pressure;Samples;Min_cycle;Max_cycle;Signal;HPM_P1;HPM_P2
2023/04/24 00:00:45;;;;;;;8.55;5.82;;;;;;;17.74;65.82;99914.53;5014183;28;20484;-83
2023/04/24 00:03:13;;;;;;;8.25;5.70;;;;;;;17.80;65.60;99923.41;5014078;28;20042;-83
2023/04/24 00:05:41;;;;;;;11.77;6.78;;;;;;;17.93;65.29;99915.94;4996482;28;20075;-83
2023/04/24 00:08:09;;;;;;;8.32;5.80;;;;;;;18.09;64.71;99924.38;5013902;28;20041;-82
2023/04/24 00:10:37;;;;;;;9.18;6.22;;;;;;;17.93;64.66;99913.97;5013425;28;20056;-81
2023/04/24 00:13:05;;;;;;;8.93;6.28;;;;;;;17.59;65.26;99899.41;5013945;28;20046;-81
2023/04/24 00:15:33;;;;;;;8.52;5.57;;;;;;;17.37;66.16;99901.47;4996323;28;20488;-82
2023/04/24 00:18:03;;;;;;;6.80;5.60;;;;;;;17.43;65.06;99899.28;5013601;28;20476;-81
2023/04/24 00:20:35;;;;;;;10.45;6.00;;;;;;;17.41;65.46;99891.31;4996073;28;20492;-82
2023/04/24 00:23:03;;;;;;;8.25;5.22;;;;;;;17.55;66.51;99887.44;5013732;28;20056;-83
2023/04/24 00:25:31;;;;;;;8.07;5.63;;;;;;;17.63;65.08;99891.22;4996170;28;20050;-82
2023/04/24 00:27:59;;;;;;;8.07;5.57;;;;;;;17.62;65.68;99890.44;5013623;28;20046;-82
2023/04/24 00:30:27;;;;;;;7.47;5.35;;;;;;;17.75;65.24;99893.22;4979819;28;20349;-82
2023/04/24 00:32:55;;;;;;;8.85;6.28;;;;;;;17.55;66.03;99879.13;4996070;28;20046;-82
2023/04/24 00:35:23;;;;;;;10.80;6.65;;;;;;;17.36;67.96;99882.47;5013164;28;20038;-82
2023/04/24 00:37:51;;;;;;;11.13;6.60;;;;;;;17.37;67.98;99862.75;5013265;28;20396;-82
2023/04/24 00:40:20;;;;;;;10.38;6.95;;;;;;;17.31;69.30;99858.59;5013208;28;20507;-83
2023/04/24 00:42:48;;;;;;;10.07;7.30;;;;;;;17.04;70.17;99867.19;5013367;28;20045;-82
2023/04/24 00:45:17;;;;;;;9.07;6.65;;;;;;;17.13;70.02;99864.34;4995396;28;20046;-81
2023/04/24 00:47:45;;;;;;;10.02;6.93;;;;;;;17.29;70.14;99855.34;5013300;28;20526;-82
2023/04/24 00:50:14;;;;;;;10.93;7.15;;;;;;;17.23;70.73;99862.25;4995219;28;20060;-81
2023/04/24 00:52:42;;;;;;;11.65;6.85;;;;;;;17.19;70.29;99857.44;5013240;28;20042;-82
2023/04/24 00:55:10;;;;;;;14.15;6.75;;;;;;;17.03;71.09;99845.41;4995466;28;20052;-81
2023/04/24 00:57:39;;;;;;;10.45;7.20;;;;;;;17.11;71.71;99844.50;5013153;28;20069;-82
2023/04/24 01:00:10;;;;;;;9.82;6.70;;;;;;;17.04;71.66;99847.84;5012753;28;20045;-81
2023/04/24 01:02:43;;;;;;;10.27;6.90;;;;;;;16.93;72.15;99833.59;4995556;28;20050;-82
2023/04/24 01:05:13;;;;;;;8.98;6.47;;;;;;;17.35;70.74;99842.91;5012951;28;20045;-81
2023/04/24 01:07:45;;;;;;;12.00;7.22;;;;;;;17.24;72.01;99842.56;4995434;28;20049;-83
2023/04/24 01:10:14;;;;;;;11.65;7.47;;;;;;;17.45;71.12;99847.22;5012420;28;20053;-82
2023/04/24 01:12:42;;;;;;;12.15;7.63;;;;;;;17.27;72.41;99838.31;5012720;28;20057;-81
2023/04/24 01:15:12;;;;;;;11.32;8.18;;;;;;;17.31;73.14;99842.00;4978879;28;20051;-83
2023/04/24 01:17:42;;;;;;;13.52;8.40;;;;;;;17.14;74.57;99841.06;5011911;28;20053;-81
2023/04/24 01:20:10;;;;;;;11.13;7.70;;;;;;;17.10;74.15;99839.34;5012691;28;20050;-82
2023/04/24 01:22:38;;;;;;;12.23;7.63;;;;;;;16.99;74.91;99831.44;5012701;28;20476;-82
2023/04/24 01:25:06;;;;;;;10.32;7.15;;;;;;;16.95;75.41;99833.25;4994885;28;20046;-82
2023/04/24 01:27:34;;;;;;;11.20;7.68;;;;;;;16.86;75.38;99818.75;5012447;28;20045;-81
2023/04/24 01:30:03;;;;;;;10.13;6.95;;;;;;;17.06;76.58;99828.94;5012292;28;20076;-81
2023/04/24 01:32:32;;;;;;;12.82;7.40;;;;;;;17.00;78.59;99807.34;5012591;28;20050;-81
2023/04/24 01:35:00;;;;;;;12.60;7.43;;;;;;;17.04;79.25;99805.56;5012480;28;20042;-81
2023/04/24 01:37:28;;;;;;;12.00;7.78;;;;;;;16.77;79.90;99805.81;4994850;28;20054;-81
2023/04/24 01:39:56;;;;;;;12.63;8.10;;;;;;;16.70;81.28;99797.28;5012393;28;20049;-81
2023/04/24 01:42:26;;;;;;;12.38;7.40;;;;;;;16.81;82.03;99802.38;4978910;28;20060;-81
2023/04/24 01:44:54;;;;;;;11.38;8.48;;;;;;;16.61;83.44;99805.66;5012415;28;20050;-80
2023/04/24 01:47:22;;;;;;;11.70;8.05;;;;;;;16.64;87.56;99805.00;4994706;28;20045;-79
2023/04/24 01:49:50;;;;;;;13.23;7.75;;;;;;;16.51;89.59;99792.25;4994288;28;20492;-80
2023/04/24 01:52:18;;;;;;;12.10;8.05;;;;;;;16.55;88.25;99790.44;5012424;28;20235;-80
2023/04/24 01:54:47;;;;;;;13.45;8.38;;;;;;;16.43;91.50;99795.94;4994715;28;20400;-80
2023/04/24 01:57:17;;;;;;;10.35;7.50;;;;;;;16.21;90.75;99795.13;4977868;28;20400;-81
2023/04/24 01:59:44;;;;;;;13.35;8.05;;;;;;;16.20;89.72;99794.34;4994369;28;20045;-80
2023/04/24 02:02:12;;;;;;;14.18;8.77;;;;;;;16.38;90.60;99789.47;4994654;28;20053;-81
2023/04/24 02:04:40;;;;;;;16.15;9.60;;;;;;;16.29;92.16;99794.28;4994718;28;20499;-81
2023/04/24 02:07:08;;;;;;;16.95;10.88;;;;;;;16.14;93.57;99792.94;4994224;28;20607;-80
2023/04/24 02:09:36;;;;;;;16.00;10.30;;;;;;;16.25;94.05;99798.84;4994300;28;20042;-80
2023/04/24 02:12:05;;;;;;;17.20;11.18;;;;;;;16.55;95.77;99807.03;5012099;28;20365;-79
2023/04/24 02:14:32;;;;;;;18.80;11.20;;;;;;;16.39;96.19;99791.06;5012253;28;20484;-79
2023/04/24 02:17:00;;;;;;;18.05;11.00;;;;;;;16.46;95.16;99809.03;4994542;28;20049;-80
2023/04/24 02:19:28;;;;;;;19.85;12.07;;;;;;;16.43;100.00;99793.97;5012124;28;20057;-80
2023/04/24 02:21:56;;;;;;;20.85;12.18;;;;;;;16.35;100.00;99800.38;4994790;28;20073;-80
2023/04/24 02:24:24;;;;;;;18.05;11.18;;;;;;;16.32;99.48;99809.34;5012154;28;20049;-80
2023/04/24 02:26:52;;;;;;;16.60;10.88;;;;;;;16.21;100.00;99804.22;4994382;28;20045;-80
2023/04/24 02:29:20;;;;;;;15.45;10.82;;;;;;;16.23;100.00;99795.63;5014079;28;20053;-80
2023/04/24 02:31:50;;;;;;;17.10;10.88;;;;;;;16.26;100.00;99797.69;4998954;28;20065;-80
2023/04/24 02:34:18;;;;;;;21.77;11.60;;;;;;;15.77;100.00;99785.22;5015977;28;20046;-80
2023/04/24 02:36:45;;;;;;;18.38;11.40;;;;;;;15.93;100.00;99782.69;5015624;28;20038;-80
2023/04/24 02:39:16;;;;;;;21.38;11.45;;;;;;;15.75;100.00;99783.94;4998218;28;20508;-80
2023/04/24 02:41:44;;;;;;;18.38;11.63;;;;;;;15.77;100.00;99784.38;5015880;28;20487;-80
2023/04/24 02:44:12;;;;;;;18.98;11.65;;;;;;;15.92;100.00;99786.59;5015767;28;20068;-79
2023/04/24 02:46:41;;;;;;;18.50;12.07;;;;;;;15.82;100.00;99782.25;5015401;28;20062;-80
2023/04/24 02:49:09;;;;;;;20.38;12.77;;;;;;;15.84;100.00;99788.22;5015286;28;20408;-80
2023/04/24 02:51:40;;;;;;;22.63;13.30;;;;;;;15.75;100.00;99773.72;4994555;28;20592;-79
2023/04/24 02:54:12;;;;;;;18.52;12.05;;;;;;;15.96;100.00;99770.16;4994888;28;20042;-80
2023/04/24 02:56:40;;;;;;;21.60;12.07;;;;;;;15.99;100.00;99772.28;4995844;28;20057;-79
2023/04/24 02:59:10;;;;;;;18.90;12.52;;;;;;;15.84;100.00;99773.66;4994720;28;20050;-79
2023/04/24 03:01:38;;;;;;;18.05;12.73;;;;;;;15.87;100.00;99772.16;4994293;28;20050;-79
2023/04/24 03:04:06;;;;;;;19.92;12.45;;;;;;;15.75;100.00;99773.72;4994419;28;20477;-79
2023/04/24 03:06:35;;;;;;;15.80;11.63;;;;;;;15.96;100.00;99776.50;4995562;28;20046;-79
2023/04/24 03:09:03;;;;;;;18.13;11.57;;;;;;;15.82;100.00;99771.22;4994471;28;20046;-79
2023/04/24 03:11:32;;;;;;;18.65;11.70;;;;;;;15.38;100.00;99773.41;4994249;28;20043;-79
2023/04/24 03:14:00;;;;;;;16.95;12.05;;;;;;;15.40;100.00;99771.94;4994468;28;20042;-79
2023/04/24 03:16:28;;;;;;;18.17;11.60;;;;;;;15.42;100.00;99777.97;4994153;28;20042;-79
2023/04/24 03:18:56;;;;;;;18.83;11.07;;;;;;;15.51;100.00;99763.31;4994370;28;20507;-79
2023/04/24 03:21:27;;;;;;;16.50;11.10;;;;;;;15.56;100.00;99771.38;4994320;28;20409;-79
2023/04/24 03:23:55;;;;;;;16.73;10.52;;;;;;;15.51;100.00;99777.09;4994252;28;20038;-78
2023/04/24 03:26:22;;;;;;;15.00;9.93;;;;;;;15.34;100.00;99778.00;4993955;28;20030;-78
2023/04/24 03:29:02;;;;;;;19.02;11.15;;;;;;;15.15;100.00;99770.97;4993886;28;20046;-78
2023/04/24 03:31:30;;;;;;;15.45;9.90;;;;;;;14.99;100.00;99784.44;4994027;28;20058;-78
2023/04/24 03:33:58;;;;;;;17.30;10.50;;;;;;;14.80;100.00;99765.56;4994166;28;20046;-77
2023/04/24 03:36:27;;;;;;;17.67;11.02;;;;;;;14.86;100.00;99758.75;4993775;28;20054;-77
2023/04/24 03:38:55;;;;;;;16.58;11.25;;;;;;;14.92;100.00;99751.91;4993806;28;20045;-79
2023/04/24 03:41:27;;;;;;;18.55;10.40;;;;;;;14.84;100.00;99748.06;4993959;28;20416;-80
2023/04/24 03:44:02;;;;;;;15.82;10.52;;;;;;;14.86;100.00;99758.75;4995276;28;20047;-80
2023/04/24 03:46:30;;;;;;;19.05;11.05;;;;;;;14.78;100.00;99758.44;4993944;28;20050;-79
2023/04/24 03:49:01;;;;;;;18.35;12.13;;;;;;;14.57;100.00;99758.28;4994069;28;20049;-80
2023/04/24 03:51:33;;;;;;;17.25;12.30;;;;;;;14.67;100.00;99775.59;4993730;28;20059;-80
2023/04/24 03:54:10;;;;;;;18.15;12.02;;;;;;;14.95;100.00;99772.50;4977787;28;20046;-80
2023/04/24 03:56:39;;;;;;;14.43;10.98;;;;;;;15.06;100.00;99773.75;4994961;28;20055;-80
2023/04/24 03:59:07;;;;;;;18.80;12.23;;;;;;;15.05;100.00;99756.41;4993899;28;20046;-80
2023/04/24 04:01:37;;;;;;;19.20;11.80;;;;;;;15.22;100.00;99773.19;4993836;28;20042;-80
2023/04/24 04:04:13;;;;;;;16.52;11.18;;;;;;;15.15;100.00;99780.03;4993735;28;20057;-80
2023/04/24 04:06:43;;;;;;;19.23;11.70;;;;;;;15.37;100.00;99780.09;4983464;28;20046;-80
2023/04/24 04:09:12;;;;;;;23.58;12.50;;;;;;;15.44;100.00;99785.88;4993694;28;20046;-80
2023/04/24 04:11:40;;;;;;;20.90;12.05;;;;;;;15.51;100.00;99786.19;4993436;28;20050;-81
2023/04/24 04:14:08;;;;;;;18.40;10.90;;;;;;;15.42;100.00;99785.41;4979991;28;20058;-80
2023/04/24 04:16:39;;;;;;;16.48;11.02;;;;;;;15.27;100.00;99773.81;4985026;28;20049;-80
2023/04/24 04:19:08;;;;;;;18.27;10.95;;;;;;;15.42;100.00;99780.72;4993300;28;20045;-80
2023/04/24 04:21:36;;;;;;;16.80;10.48;;;;;;;15.41;100.00;99787.34;4991350;28;20050;-80
2023/04/24 04:24:12;;;;;;;16.98;10.48;;;;;;;15.37;100.00;99788.34;4993218;28;20492;-80
2023/04/24 04:26:46;;;;;;;15.32;10.32;;;;;;;15.46;100.00;99786.38;4992014;28;20046;-80
2023/04/24 04:29:25;;;;;;;17.33;11.45;;;;;;;15.38;100.00;99789.97;4991170;28;20101;-80
2023/04/24 04:31:54;;;;;;;16.33;10.45;;;;;;;15.31;100.00;99788.53;4978070;28;20397;-81
2023/04/24 04:34:23;;;;;;;17.98;10.55;;;;;;;15.23;100.00;99794.09;4976962;28;20131;-81
2023/04/24 04:36:52;;;;;;;16.05;10.93;;;;;;;15.11;100.00;99797.56;4992661;28;20053;-81
2023/04/24 04:39:43;;;;;;;17.88;10.45;;;;;;;15.15;100.00;99804.03;4975099;28;20058;-81
2023/04/24 04:42:18;;;;;;;15.10;9.90;;;;;;;15.19;100.00;99802.22;4992918;28;20042;-80
2023/04/24 04:44:46;;;;;;;15.68;10.43;;;;;;;15.13;100.00;99807.09;4992549;28;20049;-81
2023/04/24 04:47:24;;;;;;;15.82;10.15;;;;;;;15.13;100.00;99820.06;4992589;28;20038;-81
2023/04/24 04:49:54;;;;;;;14.48;10.27;;;;;;;14.94;100.00;99829.53;4993695;28;20069;-81
2023/04/24 04:52:26;;;;;;;16.35;10.98;;;;;;;15.00;100.00;99838.44;4986083;28;20065;-81
2023/04/24 04:55:14;;;;;;;17.27;12.27;;;;;;;14.98;100.00;99855.28;5012761;28;20057;-81
2023/04/24 04:58:08;;;;;;;23.40;12.65;;;;;;;15.05;100.00;99832.72;4995773;28;20053;-80
2023/04/24 05:00:37;;;;;;;19.08;12.48;;;;;;;15.10;100.00;99824.28;4995112;28;20050;-81
2023/04/24 05:03:25;;;;;;;20.77;12.48;;;;;;;15.00;100.00;99825.44;5012596;28;20054;-81
2023/04/24 05:05:59;;;;;;;;;;;;;;;14.67;100.00;99803.97;4995533;28;20042;-80
2023/04/24 05:08:28;;;;;;;18.38;12.07;;;;;;;14.67;100.00;99814.97;4995425;28;19929;-80
2023/04/24 05:10:56;;;;;;;19.00;12.15;;;;;;;14.85;100.00;99836.97;5012486;28;20384;-80
2023/04/24 05:13:26;;;;;;;19.25;12.88;;;;;;;15.04;100.00;99826.44;4994681;28;20045;-82
2023/04/24 05:16:30;;;;;;;18.75;12.40;;;;;;;15.14;100.00;99818.91;5011118;28;20037;-82
2023/04/24 05:18:58;;;;;;;18.27;12.73;;;;;;;15.16;100.00;99834.00;4995164;28;20049;-82
2023/04/24 05:21:31;;;;;;;19.95;12.20;;;;;;;15.27;100.00;99828.94;4995444;28;20049;-82
2023/04/24 05:24:00;;;;;;;17.30;11.93;;;;;;;15.27;100.00;99823.44;4978152;28;20053;-82
2023/04/24 05:26:55;;;;;;;18.20;12.57;;;;;;;15.29;100.00;99831.34;4980646;28;20058;-82
2023/04/24 05:29:30;;;;;;;19.45;11.98;;;;;;;15.37;100.00;99816.75;4994969;28;20050;-82
2023/04/24 05:31:59;;;;;;;20.55;12.57;;;;;;;15.42;100.00;99829.53;5012597;28;20049;-82
2023/04/24 05:34:29;;;;;;;15.27;10.27;;;;;;;15.28;100.00;99824.22;4979075;28;20092;-82
2023/04/24 05:36:58;;;;;;;16.55;10.93;;;;;;;15.27;100.00;99812.41;4994538;28;20042;-82
2023/04/24 05:39:26;;;;;;;13.80;9.05;;;;;;;15.44;100.00;99794.97;4994893;28;20046;-82
2023/04/24 05:41:57;;;;;;;11.88;7.43;;;;;;;15.32;100.00;99792.91;4994955;28;20053;-82
2023/04/24 05:44:25;;;;;;;10.07;6.35;;;;;;;15.43;100.00;99789.78;5012670;28;20061;-82
2023/04/24 05:46:55;;;;;;;5.90;4.68;;;;;;;15.42;100.00;99779.91;4987119;28;20498;-81
2023/04/24 05:49:23;;;;;;;6.75;4.35;;;;;;;15.26;100.00;99780.44;4994715;28;20045;-82
2023/04/24 05:51:51;;;;;;;5.43;4.28;;;;;;;15.31;100.00;99782.22;4994839;28;20054;-82
2023/04/24 05:54:19;;;;;;;5.35;4.10;;;;;;;15.45;100.00;99806.81;4994272;28;20052;-82
2023/04/24 05:56:50;;;;;;;5.22;3.97;;;;;;;15.40;100.00;99795.97;4994121;28;20042;-82
2023/04/24 05:59:30;;;;;;;5.30;3.42;;;;;;;15.33;100.00;99782.69;4994460;28;20041;-79
2023/04/24 06:01:58;;;;;;;3.63;2.95;;;;;;;15.25;100.00;99781.59;4990306;28;20046;-79
2023/04/24 06:04:26;;;;;;;2.88;2.55;;;;;;;15.17;100.00;99785.22;4993338;28;20060;-82
2023/04/24 06:06:55;;;;;;;4.65;2.25;;;;;;;15.07;100.00;99791.06;5010981;28;20046;-82
2023/04/24 06:09:25;;;;;;;3.83;2.45;;;;;;;15.14;100.00;99802.38;4987232;28;20049;-80
2023/04/24 06:11:54;;;;;;;4.32;2.92;;;;;;;15.29;100.00;99803.78;5007374;28;20038;-82
2023/04/24 06:14:26;;;;;;;2.70;2.25;;;;;;;15.08;100.00;99792.69;4992219;28;20498;-80
2023/04/24 06:17:24;;;;;;;2.40;2.20;;;;;;;15.11;100.00;99816.84;4988474;28;20057;-80
2023/04/24 06:19:52;;;;;;;3.17;2.20;;;;;;;15.10;100.00;99818.78;4994302;28;20056;-80
2023/04/24 06:22:21;;;;;;;2.20;2.00;;;;;;;15.26;100.00;99824.53;4982123;28;20047;-79
2023/04/24 06:24:49;;;;;;;3.30;2.22;;;;;;;15.51;100.00;99827.53;4998343;28;20042;-81
2023/04/24 06:27:18;;;;;;;2.42;2.22;;;;;;;15.51;100.00;99819.28;5016188;28;20046;-81
2023/04/24 06:29:46;;;;;;;2.10;1.90;;;;;;;15.54;100.00;99815.84;4999772;28;20060;-81
2023/04/24 06:32:13;;;;;;;2.33;2.00;;;;;;;15.62;100.00;99816.94;5010092;28;20122;-82
2023/04/24 06:34:42;;;;;;;2.65;2.42;;;;;;;15.56;100.00;99815.50;5009656;28;20046;-80
2023/04/24 06:37:16;;;;;;;3.22;2.38;;;;;;;15.78;100.00;99819.91;5009375;28;20038;-80
2023/04/24 06:39:43;;;;;;;5.88;2.97;;;;;;;15.69;100.00;99827.44;4995432;28;20485;-80
2023/04/24 06:42:11;;;;;;;4.38;3.05;;;;;;;15.72;100.00;99830.34;5026472;28;20565;-81
2023/04/24 06:44:42;;;;;;;3.67;3.08;;;;;;;15.81;100.00;99835.81;5029698;28;20563;-81
2023/04/24 06:47:12;;;;;;;7.63;3.67;;;;;;;15.76;100.00;99841.53;5030765;28;20045;-81
2023/04/24 06:49:40;;;;;;;3.50;3.10;;;;;;;15.73;100.00;99842.19;5006899;28;20047;-81
2023/04/24 06:52:09;;;;;;;4.40;3.20;;;;;;;15.62;100.00;99839.00;4997520;28;20038;-81
2023/04/24 06:54:37;;;;;;;4.38;3.53;;;;;;;15.65;100.00;99832.81;4993848;28;20053;-83
2023/04/24 06:57:05;;;;;;;3.40;2.65;;;;;;;15.62;100.00;99832.66;5010830;28;20046;-83
2023/04/24 06:59:33;;;;;;;4.28;3.55;;;;;;;15.50;100.00;99819.59;5010680;28;20042;-81
2023/04/24 07:02:00;;;;;;;6.75;4.00;;;;;;;15.52;100.00;99817.31;5011339;28;20118;-81
2023/04/24 07:04:29;;;;;;;5.72;3.78;;;;;;;15.59;100.00;99810.13;5011213;28;20054;-82
2023/04/24 07:06:58;;;;;;;7.10;3.72;;;;;;;15.47;100.00;99810.03;5009734;28;20041;-82
2023/04/24 07:09:26;;;;;;;3.28;2.35;;;;;;;15.46;99.51;99802.91;5005673;28;20053;-82
2023/04/24 07:11:54;;;;;;;2.15;1.08;;;;;;;15.49;95.55;99791.22;4998780;28;20138;-81
2023/04/24 07:14:22;;;;;;;0.73;0.30;;;;;;;15.54;93.62;99795.75;4998432;28;20376;-81
2023/04/24 07:16:50;;;;;;;0.63;0.57;;;;;;;15.62;92.70;99783.03;5009457;28;20052;-81
2023/04/24 07:19:18;;;;;;;0.20;0.20;;;;;;;15.36;94.31;99781.22;5012373;28;20038;-82
2023/04/24 07:21:46;;;;;;;0.20;0.20;;;;;;;15.34;90.58;99773.28;5003622;28;20046;-82
2023/04/24 07:24:13;;;;;;;0.22;0.22;;;;;;;15.55;85.86;99787.13;4994120;28;20050;-81
2023/04/24 07:26:41;;;;;;;0.15;0.15;;;;;;;15.72;85.64;99793.66;4993901;28;20038;-82
2023/04/24 07:29:09;;;;;;;0.20;0.10;;;;;;;15.66;85.77;99778.47;5001943;28;20380;-82
2023/04/24 07:31:37;;;;;;;0.30;0.30;;;;;;;15.82;86.69;99782.25;5014816;28;20050;-81
2023/04/24 07:34:05;;;;;;;0.20;0.20;;;;;;;15.76;85.44;99774.50;5013767;28;20042;-82
2023/04/24 07:36:33;;;;;;;0.13;0.10;;;;;;;15.80;83.43;99783.72;4994832;28;20043;-82
2023/04/24 07:39:01;;;;;;;0.10;0.10;;;;;;;15.86;81.76;99776.88;4994894;28;20038;-82
2023/04/24 07:41:29;;;;;;;0.15;0.15;;;;;;;16.06;78.76;99785.50;4995400;28;20050;-82
2023/04/24 07:43:58;;;;;;;2.28;0.10;;;;;;;16.08;79.34;99797.03;4994881;28;20054;-84
2023/04/24 07:46:29;;;;;;;0.40;0.03;;;;;;;16.17;76.57;99808.00;4982098;28;20054;-82
2023/04/24 07:48:59;;;;;;;0.13;0.13;;;;;;;16.07;79.07;99806.44;5014807;28;20073;-84
2023/04/24 07:51:41;;;;;;;0.00;0.00;;;;;;;16.35;75.98;99805.91;5013981;28;20054;-84
2023/04/24 07:54:09;;;;;;;0.00;0.00;;;;;;;16.36;72.71;99804.75;4996888;28;20045;-86
2023/04/24 07:56:41;;;;;;;0.20;0.10;;;;;;;16.50;75.38;99810.81;5012822;28;20392;-84
2023/04/24 07:59:10;;;;;;;0.13;0.10;;;;;;;16.46;74.13;99803.53;5011303;28;20413;-82
2023/04/24 08:01:38;;;;;;;0.03;0.03;;;;;;;16.72;73.97;99808.78;5000967;28;20049;-84
2023/04/24 08:04:06;;;;;;;0.10;0.10;;;;;;;16.64;73.19;99805.00;5012516;28;20050;-85
2023/04/24 08:06:34;;;;;;;0.10;0.10;;;;;;;16.95;67.69;99813.13;5003281;28;20493;-83
2023/04/24 08:09:02;;;;;;;0.47;0.00;;;;;;;17.11;69.32;99827.91;4986768;28;20043;-86
2023/04/24 08:11:31;;;;;;;0.77;0.30;;;;;;;17.13;69.42;99824.81;5001544;28;20412;-82
2023/04/24 08:13:59;;;;;;;0.60;0.10;;;;;;;17.26;67.37;99828.41;5013146;28;20049;-84
2023/04/24 08:16:27;;;;;;;0.00;0.00;;;;;;;17.66;69.62;99822.19;5012234;28;20052;-87
2023/04/24 08:18:55;;;;;;;0.10;0.10;;;;;;;17.78;68.16;99823.34;5007594;28;20503;-85
2023/04/24 08:21:23;;;;;;;0.47;0.10;;;;;;;18.00;67.94;99822.03;5010628;28;20053;-84
2023/04/24 08:23:51;;;;;;;3.90;0.20;;;;;;;18.31;66.72;99817.81;5009350;28;20404;-86
2023/04/24 08:26:19;;;;;;;0.00;0.00;;;;;;;17.97;63.12;99812.47;4992135;28;20061;-90
2023/04/24 08:28:47;;;;;;;0.10;0.10;;;;;;;17.87;64.11;99812.94;5006644;28;20046;-83
2023/04/24 08:31:15;;;;;;;0.00;0.00;;;;;;;18.05;63.68;99818.22;4994587;28;20050;-87
2023/04/24 08:33:44;;;;;;;0.10;0.10;;;;;;;18.16;67.80;99818.56;4990164;28;20046;-88
2023/04/24 08:36:13;;;;;;;0.00;0.00;;;;;;;18.13;65.53;99826.41;5004179;28;20037;-81
2023/04/24 08:38:42;;;;;;;0.40;0.10;;;;;;;18.35;64.14;99826.22;5012679;28;20493;-89
2023/04/24 08:41:11;;;;;;;0.20;0.10;;;;;;;18.62;62.90;99812.75;4979154;28;20045;-84
2023/04/24 08:43:40;;;;;;;0.00;0.00;;;;;;;18.80;62.77;99821.53;5003192;28;20053;-82
2023/04/24 08:46:09;;;;;;;0.38;0.10;;;;;;;18.89;61.89;99824.16;5012267;28;20029;-85
2023/04/24 08:48:39;;;;;;;0.10;0.00;;;;;;;18.61;61.73;99827.75;5011872;28;20038;-84
2023/04/24 08:51:08;;;;;;;0.10;0.10;;;;;;;18.59;60.61;99830.06;5010739;28;20297;-86
2023/04/24 08:53:37;;;;;;;0.20;0.20;;;;;;;18.81;60.19;99839.78;5012305;28;20046;-81
2023/04/24 08:56:05;;;;;;;0.57;0.20;;;;;;;19.02;61.09;99849.84;5012702;28;20432;-83
2023/04/24 08:58:35;;;;;;;0.10;0.10;;;;;;;18.79;61.03;99840.16;5012801;28;20046;-91
2023/04/24 09:01:05;;;;;;;1.45;0.13;;;;;;;19.04;60.84;99851.13;4994970;28;20046;-82
2023/04/24 09:03:33;;;;;;;0.55;0.22;;;;;;;19.01;59.23;99856.53;5011916;28;20049;-87
2023/04/24 09:06:02;;;;;;;0.55;0.40;;;;;;;18.81;61.35;99853.63;4993044;28;20046;-82
2023/04/24 09:08:31;;;;;;;0.57;0.47;;;;;;;18.65;63.19;99859.94;4998640;28;20050;-81
2023/04/24 09:11:01;;;;;;;0.65;0.15;;;;;;;18.59;65.60;99857.78;5005395;28;20046;-81
2023/04/24 09:13:30;;;;;;;0.80;0.30;;;;;;;18.65;64.79;99861.91;4992493;28;20046;-80
2023/04/24 09:16:00;;;;;;;0.20;0.20;;;;;;;18.64;65.56;99851.97;4993912;28;20046;-81
2023/04/24 09:18:27;;;;;;;1.25;0.77;;;;;;;18.82;64.30;99860.00;4992653;28;20050;-83
2023/04/24 09:21:07;;;;;;;0.35;0.35;;;;;;;19.00;63.38;99860.47;4996909;28;20057;-81
2023/04/24 09:23:35;;;;;;;0.40;0.38;;;;;;;18.98;64.20;99874.69;5011785;28;20050;-80
2023/04/24 09:26:06;;;;;;;2.90;1.00;;;;;;;19.15;62.16;99878.31;5012262;28;20046;-83
2023/04/24 09:28:39;;;;;;;1.08;0.40;;;;;;;19.16;61.97;99864.09;5006960;28;20050;-82
2023/04/24 09:31:17;;;;;;;0.57;0.50;;;;;;;19.24;61.61;99861.50;5011910;28;20050;-80
2023/04/24 09:34:00;;;;;;;0.50;0.40;;;;;;;19.27;61.85;99858.84;5002111;28;20049;-83
2023/04/24 09:36:37;;;;;;;;;;;;;;;19.23;62.38;99863.50;5002597;28;20054;-84
2023/04/24 09:39:11;;;;;;;0.25;0.25;;;;;;;19.24;61.74;99859.53;4993350;28;20372;-85
2023/04/24 09:41:53;;;;;;;0.38;0.38;;;;;;;19.39;61.34;99862.66;4993030;28;20053;-85
2023/04/24 09:44:22;;;;;;;1.13;0.50;;;;;;;19.42;61.65;99851.69;5005288;28;20049;-85
2023/04/24 09:47:07;;;;;;;0.60;0.45;;;;;;;19.41;61.79;99858.38;4991551;28;20042;-82
2023/04/24 09:49:44;;;;;;;2.60;0.60;;;;;;;19.45;60.55;99856.50;4993609;28;20046;-84
2023/04/24 09:52:15;;;;;;;0.52;0.47;;;;;;;19.69;60.53;99857.47;5004681;28;20038;-83
2023/04/24 09:54:54;;;;;;;1.67;0.60;;;;;;;19.71;60.77;99860.69;4982633;28;20045;-84
2023/04/24 09:57:22;;;;;;;0.47;0.40;;;;;;;19.68;61.26;99866.16;5011151;28;20409;-84
2023/04/24 09:59:53;;;;;;;2.60;0.68;;;;;;;19.81;60.93;99861.31;4993464;28;20053;-85
2023/04/24 10:02:21;;;;;;;0.30;0.28;;;;;;;19.90;61.48;99855.56;5010539;28;20050;-86
2023/04/24 10:04:56;;;;;;;0.38;0.38;;;;;;;20.05;60.51;99856.72;4993544;28;20488;-84
2023/04/24 10:07:27;;;;;;;0.85;0.65;;;;;;;20.04;59.42;99855.91;4999961;28;20240;-85
2023/04/24 10:09:56;;;;;;;0.75;0.75;;;;;;;20.07;59.99;99862.72;5009571;28;20050;-85
2023/04/24 10:12:25;;;;;;;0.75;0.60;;;;;;;20.11;59.01;99858.88;5009526;28;20049;-85
2023/04/24 10:14:53;;;;;;;1.08;0.70;;;;;;;20.08;58.39;99856.78;5010167;28;20050;-86
2023/04/24 10:17:23;;;;;;;1.60;0.60;;;;;;;20.28;57.20;99854.03;5006268;28;20057;-86
2023/04/24 10:19:52;;;;;;;1.13;0.73;;;;;;;20.22;58.49;99849.94;4992131;28;20493;-86
2023/04/24 10:22:22;;;;;;;1.30;0.98;;;;;;;20.36;57.73;99855.81;4992011;28;20397;-86
2023/04/24 10:24:52;;;;;;;0.80;0.80;;;;;;;20.42;58.39;99847.97;4993377;28;20058;-86
2023/04/24 10:27:21;;;;;;;1.92;1.17;;;;;;;20.50;56.81;99854.50;5011168;28;20042;-86
2023/04/24 10:29:53;;;;;;;0.93;0.82;;;;;;;20.78;57.18;99853.47;4992017;28;20410;-86
2023/04/24 10:32:21;;;;;;;2.28;1.10;;;;;;;20.72;56.58;99857.72;4991653;28;20046;-86
2023/04/24 10:34:49;;;;;;;1.50;1.20;;;;;;;20.78;56.42;99861.81;4992720;28;20046;-86
2023/04/24 10:37:17;;;;;;;2.38;1.30;;;;;;;21.00;56.91;99856.66;4975481;28;20051;-86
2023/04/24 10:39:48;;;;;;;1.48;1.17;;;;;;;20.99;54.73;99863.41;4975348;28;20047;-86
2023/04/24 10:42:16;;;;;;;1.33;1.13;;;;;;;20.94;54.78;99865.34;5003320;28;20053;-86
2023/04/24 10:44:48;;;;;;;1.80;1.63;;;;;;;20.95;55.03;99874.47;5011825;28;20481;-87
2023/04/24 10:47:16;;;;;;;1.25;1.10;;;;;;;20.82;55.15;99862.66;5009719;28;20409;-86
2023/04/24 10:49:45;;;;;;;1.33;1.23;;;;;;;20.73;54.44;99867.66;5011523;28;20075;-84
2023/04/24 10:52:14;;;;;;;1.63;1.52;;;;;;;20.92;54.20;99870.44;5015698;28;20052;-86
2023/04/24 10:54:45;;;;;;;1.80;1.45;;;;;;;21.09;53.94;99871.16;5014290;28;20050;-86
2023/04/24 10:57:20;;;;;;;1.15;0.90;;;;;;;20.98;53.87;99878.47;5010242;28;20049;-87
2023/04/24 11:00:19;;;;;;;1.40;0.98;;;;;;;21.10;52.79;99881.09;5014013;28;20057;-86
2023/04/24 11:02:50;;;;;;;1.88;1.15;;;;;;;20.99;53.31;99878.13;5014283;28;20049;-86
2023/04/24 11:05:20;;;;;;;2.75;1.38;;;;;;;21.19;53.26;99878.88;5013556;28;20496;-85
2023/04/24 11:08:12;;;;;;;2.75;1.60;;;;;;;21.31;53.71;99879.88;5013811;28;20045;-88
2023/04/24 11:10:45;;;;;;;2.20;1.63;;;;;;;21.39;53.21;99880.78;5013418;28;20049;-88
2023/04/24 11:13:16;;;;;;;5.53;2.67;;;;;;;21.41;52.62;99876.47;5014552;28;20484;-90
2023/04/24 11:15:44;;;;;;;1.95;1.73;;;;;;;21.57;53.25;99869.97;4971041;28;20050;-85
2023/04/24 11:18:15;;;;;;;2.63;1.98;;;;;;;21.52;53.39;99859.16;5004973;28;20034;-88
2023/04/24 11:20:44;;;;;;;5.28;2.03;;;;;;;21.50;54.47;99864.28;4975182;28;20057;-87
2023/04/24 11:23:12;;;;;;;3.35;1.98;;;;;;;;;;5010066;28;20053;-87
2023/04/24 11:25:42;;;;;;;2.47;1.65;;;;;;;21.73;51.82;99867.88;5001814;28;20054;-86
2023/04/24 11:28:16;;;;;;;2.72;1.60;;;;;;;21.81;53.60;99857.66;5000738;28;20073;-86
2023/04/24 11:30:44;;;;;;;1.52;1.40;;;;;;;21.92;50.65;99874.53;5004427;28;20417;-87
2023/04/24 11:33:20;;;;;;;2.97;1.65;;;;;;;21.91;50.42;99864.56;5009597;28;20046;-87
2023/04/24 11:35:48;;;;;;;3.92;1.02;;;;;;;22.11;51.07;99867.22;5001597;28;20520;-87
2023/04/24 11:38:17;;;;;;;1.33;0.98;;;;;;;22.15;48.33;99871.66;5004728;28;20046;-86